createdAt,value
2018-12-05T00:00:40.469Z,13.53
2018-12-05T00:03:10.979Z,17.43
2018-12-05T00:05:40.900Z,16.00
2018-12-05T00:08:10.911Z,15.63
2018-12-05T00:10:40.828Z,20.83
2018-12-05T00:13:10.944Z,15.87
2018-12-05T00:15:40.859Z,21.43
2018-12-05T00:18:10.470Z,24.67
2018-12-05T00:20:40.283Z,16.87
2018-12-05T00:23:10.425Z,17.03
2018-12-05T00:25:40.921Z,18.77
2018-12-05T00:28:11.244Z,20.77
2018-12-05T00:30:41.584Z,16.07
2018-12-05T00:33:11.808Z,15.80
2018-12-05T00:35:41.807Z,17.57
2018-12-05T00:38:12.353Z,21.47
2018-12-05T00:40:42.366Z,14.63
2018-12-05T00:43:12.267Z,24.20
2018-12-05T00:45:42.281Z,17.30
2018-12-05T00:48:12.627Z,16.17
2018-12-05T01:09:26.585Z,17.03
2018-12-05T01:11:56.376Z,18.30
2018-12-05T01:33:10.750Z,10.77
2018-12-05T01:35:40.783Z,16.70
2018-12-05T01:38:10.269Z,16.03
2018-12-05T01:40:39.995Z,17.50
2018-12-05T01:43:10.410Z,13.23
2018-12-05T01:45:41.258Z,18.90
2018-12-05T01:48:11.792Z,14.37
2018-12-05T01:50:42.217Z,19.33
2018-12-05T01:53:12.524Z,12.80
2018-12-05T01:55:43.163Z,12.73
2018-12-05T01:58:14.405Z,15.67
2018-12-05T02:00:44.946Z,18.90
2018-12-05T02:03:14.847Z,14.57
2018-12-05T02:05:45.377Z,16.43
2018-12-05T02:08:15.385Z,18.47
2018-12-05T02:10:44.987Z,14.67
2018-12-05T02:13:15.538Z,15.83
2018-12-05T02:15:46.267Z,17.17
2018-12-05T02:18:17.032Z,18.53
2018-12-05T02:39:31.865Z,16.23
2018-12-05T03:00:46.043Z,12.27
2018-12-05T03:03:15.858Z,18.93
2018-12-05T03:05:45.459Z,13.60
2018-12-05T03:08:15.596Z,11.30
2018-12-05T03:10:45.906Z,17.57
2018-12-05T03:13:15.503Z,13.93
2018-12-05T03:34:29.798Z,17.50
2018-12-05T03:36:59.788Z,18.53
2018-12-05T03:39:29.699Z,11.97
2018-12-05T03:41:59.820Z,19.23
2018-12-05T03:44:30.139Z,15.97
2018-12-05T03:47:00.378Z,14.07
2018-12-05T04:08:14.132Z,16.13
2018-12-05T04:10:44.456Z,26.67
2018-12-05T04:13:15.197Z,21.63
2018-12-05T04:34:43.803Z,20.60
2018-12-05T04:37:13.800Z,19.70
2018-12-05T04:39:43.835Z,18.40
2018-12-05T04:42:13.524Z,24.47
2018-12-05T05:03:28.935Z,21.37
2018-12-05T05:05:58.631Z,17.13
2018-12-05T05:08:29.369Z,20.30
2018-12-05T05:11:00.218Z,16.37
2018-12-05T05:13:31.554Z,22.27
2018-12-05T05:47:15.489Z,18.30
2018-12-05T05:49:45.401Z,16.63
2018-12-05T05:52:15.025Z,20.33
2018-12-05T05:54:44.843Z,14.93
2018-12-05T05:57:14.760Z,19.80
2018-12-05T05:59:44.563Z,19.63
2018-12-05T06:02:14.256Z,21.17
2018-12-05T06:04:44.184Z,24.13
2018-12-05T06:07:14.004Z,21.63
2018-12-05T06:09:43.909Z,25.27
2018-12-05T06:12:13.504Z,35.87
2018-12-05T06:14:43.333Z,28.20
2018-12-05T06:17:13.231Z,27.43
2018-12-05T06:19:42.957Z,25.17
2018-12-05T06:22:12.982Z,23.13
2018-12-05T06:24:44.338Z,20.63
2018-12-05T06:27:17.322Z,21.67
2018-12-05T06:29:47.431Z,32.30
2018-12-05T06:32:17.446Z,57.50
2018-12-05T06:34:47.145Z,28.97
2018-12-05T06:37:17.049Z,24.50
2018-12-05T06:39:46.981Z,31.20
2018-12-05T06:42:16.898Z,27.53
2018-12-05T06:44:46.915Z,33.43
2018-12-05T06:47:16.929Z,36.00
2018-12-05T06:49:46.831Z,23.00
2018-12-05T06:52:16.759Z,23.03
2018-12-05T06:54:46.674Z,31.17
2018-12-05T06:57:16.588Z,31.03
2018-12-05T06:59:46.830Z,30.40
2018-12-05T07:50:22.055Z,51.57
2018-12-05T07:53:02.215Z,40.27
2018-12-05T07:55:42.260Z,40.03
2018-12-05T07:58:16.803Z,38.70
2018-12-05T08:00:46.929Z,51.00
2018-12-05T08:03:17.020Z,31.13
2018-12-05T08:05:47.891Z,40.13
2018-12-05T08:08:19.005Z,36.27
2018-12-05T08:10:49.022Z,38.73
2018-12-05T08:13:19.426Z,32.07
2018-12-05T08:15:49.755Z,34.13
2018-12-05T08:18:19.807Z,29.80
2018-12-05T08:20:50.405Z,36.03
2018-12-05T08:23:20.328Z,34.70
2018-12-05T08:25:50.320Z,39.20
2018-12-05T08:28:21.057Z,32.43
2018-12-05T08:30:52.210Z,33.17
2018-12-05T08:33:22.330Z,29.80
2018-12-05T08:35:53.280Z,24.53
2018-12-05T08:38:24.416Z,26.00
2018-12-05T08:40:56.774Z,31.27
2018-12-05T08:43:27.022Z,32.77
2018-12-05T08:45:57.542Z,31.83
2018-12-05T08:48:28.061Z,31.23
2018-12-05T08:50:58.896Z,29.70
2018-12-05T08:53:28.931Z,34.90
2018-12-05T08:55:58.410Z,26.63
2018-12-05T08:58:28.116Z,36.10
2018-12-05T09:00:57.937Z,34.93
2018-12-05T09:03:27.997Z,27.07
2018-12-05T09:05:57.860Z,31.03
2018-12-05T09:08:27.577Z,28.03
2018-12-05T09:10:57.487Z,33.13
2018-12-05T09:13:28.433Z,28.83
2018-12-05T09:15:58.065Z,26.27
2018-12-05T09:18:27.423Z,26.83
2018-12-05T09:20:57.029Z,24.17
2018-12-05T09:23:26.965Z,27.07
2018-12-05T09:25:56.865Z,23.67
2018-12-05T09:28:26.772Z,29.27
2018-12-05T09:30:56.609Z,27.57
2018-12-05T09:33:27.851Z,34.57
2018-12-05T09:35:58.379Z,24.30
2018-12-05T09:38:29.018Z,29.47
2018-12-05T09:40:58.825Z,24.57
2018-12-05T09:43:30.255Z,26.03
2018-12-05T09:46:00.583Z,24.73
2018-12-05T09:48:31.426Z,23.60
2018-12-05T10:09:45.580Z,26.77
2018-12-05T10:12:15.927Z,25.57
2018-12-05T10:14:49.918Z,23.67
2018-12-05T10:17:20.252Z,28.80
2018-12-05T10:19:50.173Z,29.17
2018-12-05T10:22:19.975Z,26.50
2018-12-05T10:24:50.313Z,20.07
2018-12-05T10:27:20.041Z,19.57
2018-12-05T10:29:49.926Z,21.37
2018-12-05T10:32:20.259Z,25.60
2018-12-05T10:34:52.307Z,24.17
2018-12-05T10:37:22.414Z,20.63
2018-12-05T10:39:52.536Z,19.20
2018-12-05T10:42:22.976Z,26.07
2018-12-05T10:44:52.990Z,20.67
2018-12-05T10:47:22.800Z,24.87
2018-12-05T10:49:52.925Z,22.83
2018-12-05T10:52:22.927Z,21.07
2018-12-05T10:54:53.106Z,20.20
2018-12-05T10:57:23.278Z,20.67
2018-12-05T10:59:53.630Z,21.27
2018-12-05T11:02:28.029Z,17.87
2018-12-05T11:05:02.532Z,22.20
2018-12-05T11:07:37.067Z,19.97
2018-12-05T11:10:11.678Z,20.63
2018-12-05T11:12:46.817Z,28.07
2018-12-05T11:15:21.657Z,28.37
2018-12-05T11:17:56.474Z,25.23
2018-12-05T11:20:31.453Z,23.43
2018-12-05T11:23:05.425Z,18.97
2018-12-05T11:25:36.353Z,20.47
2018-12-05T11:28:06.379Z,24.40
2018-12-05T11:30:36.384Z,27.67
2018-12-05T11:33:06.840Z,24.43
2018-12-05T11:54:21.911Z,22.00
2018-12-05T12:15:36.037Z,20.00
2018-12-05T12:18:06.408Z,23.43
2018-12-05T12:20:36.327Z,17.43
2018-12-05T12:23:11.928Z,22.77
2018-12-05T12:25:42.906Z,17.87
2018-12-05T12:28:13.447Z,20.40
2018-12-05T12:30:43.542Z,22.87
2018-12-05T12:33:13.661Z,23.37
2018-12-05T12:35:44.414Z,26.40
2018-12-05T12:38:15.954Z,33.03
2018-12-05T12:40:46.487Z,33.13
2018-12-05T12:43:19.689Z,19.90
2018-12-05T12:45:51.049Z,21.27
2018-12-05T12:48:21.355Z,23.57
2018-12-05T12:50:51.376Z,21.73
2018-12-05T12:53:22.391Z,25.67
2018-12-05T12:55:52.614Z,17.67
2018-12-05T12:58:22.975Z,22.60
2018-12-05T13:00:52.868Z,19.17
2018-12-05T13:03:22.983Z,29.10
2018-12-05T13:05:52.603Z,19.73
2018-12-05T13:08:23.222Z,24.00
2018-12-05T13:10:53.224Z,34.60
2018-12-05T13:13:23.347Z,23.17
2018-12-05T13:15:53.586Z,23.10
2018-12-05T13:18:23.686Z,28.63
2018-12-05T13:20:54.346Z,22.27
2018-12-05T13:23:25.387Z,22.27
2018-12-05T13:25:55.602Z,28.53
2018-12-05T13:28:25.798Z,27.50
2018-12-05T13:30:55.937Z,31.37
2018-12-05T13:33:26.254Z,21.80
2018-12-05T13:36:00.864Z,25.67
2018-12-05T13:38:40.423Z,25.63
2018-12-05T13:41:13.079Z,27.43
2018-12-05T13:43:45.458Z,22.90
2018-12-05T13:46:16.236Z,24.87
2018-12-05T14:07:32.155Z,28.20
2018-12-05T14:10:02.439Z,26.70
2018-12-05T14:12:37.482Z,27.30
2018-12-05T14:15:08.034Z,30.50
2018-12-05T14:17:39.046Z,31.33
2018-12-05T14:20:09.965Z,37.83
2018-12-05T14:22:40.006Z,35.87
2018-12-05T14:25:10.419Z,41.63
2018-12-05T14:27:40.419Z,34.43
2018-12-05T14:30:10.966Z,35.57
2018-12-05T14:32:41.376Z,30.23
2018-12-05T14:35:11.951Z,28.87
2018-12-05T14:37:42.234Z,25.10
2018-12-05T14:40:12.268Z,26.37
2018-12-05T14:42:42.987Z,25.87
2018-12-05T14:45:13.317Z,26.87
2018-12-05T14:47:43.728Z,26.77
2018-12-05T14:50:14.998Z,27.83
2018-12-05T14:52:45.420Z,27.57
2018-12-05T14:55:16.255Z,25.60
2018-12-05T14:57:46.877Z,36.53
2018-12-05T15:00:17.617Z,34.13
2018-12-05T15:02:48.050Z,34.93
2018-12-05T15:05:18.154Z,34.50
2018-12-05T15:07:49.489Z,36.17
2018-12-05T15:10:20.051Z,31.03
2018-12-05T15:12:52.946Z,37.40
2018-12-05T15:15:22.956Z,39.57
2018-12-05T15:17:52.972Z,43.67
2018-12-05T15:20:23.366Z,35.17
2018-12-05T15:22:56.899Z,42.47
2018-12-05T15:25:27.835Z,44.00
2018-12-05T15:27:58.247Z,37.50
2018-12-05T15:30:28.985Z,37.20
2018-12-05T15:32:59.305Z,61.40
2018-12-05T15:35:29.705Z,46.73
2018-12-05T15:38:00.790Z,42.67
2018-12-05T15:40:31.402Z,37.00
2018-12-05T15:43:01.291Z,38.90
2018-12-05T15:45:31.424Z,39.30
2018-12-05T16:09:52.997Z,40.43
2018-12-05T16:12:22.994Z,43.00
2018-12-05T16:14:52.495Z,39.87
2018-12-05T16:17:22.537Z,37.77
2018-12-05T16:19:52.430Z,39.60
2018-12-05T16:22:22.260Z,37.47
2018-12-05T16:24:52.049Z,41.97
2018-12-05T16:27:21.978Z,47.53
2018-12-05T16:29:52.034Z,38.93
2018-12-05T16:32:21.904Z,42.77
2018-12-05T16:34:52.419Z,46.07
2018-12-05T16:56:06.632Z,58.77
2018-12-05T16:58:36.621Z,54.43
2018-12-05T17:01:07.546Z,47.17
2018-12-05T17:03:38.185Z,48.47
2018-12-05T17:06:08.034Z,51.80
2018-12-05T17:08:38.026Z,57.77
2018-12-05T17:11:07.916Z,53.80
2018-12-05T17:13:41.833Z,50.10
2018-12-05T17:16:17.886Z,49.87
2018-12-05T17:18:44.940Z,49.03
2018-12-05T17:21:15.034Z,55.20
2018-12-05T17:42:29.414Z,61.70
2018-12-05T17:44:59.858Z,57.20
2018-12-05T17:47:29.987Z,63.77
2018-12-05T17:49:59.790Z,60.40
2018-12-05T17:52:29.792Z,73.80
2018-12-05T17:54:59.618Z,66.23
2018-12-05T17:57:30.448Z,62.50
2018-12-05T18:00:00.169Z,54.90
2018-12-05T18:02:30.384Z,60.23
2018-12-05T18:05:00.294Z,66.53
2018-12-05T18:07:30.397Z,72.57
2018-12-05T18:10:00.418Z,71.77
2018-12-05T18:12:30.656Z,64.07
2018-12-05T18:15:00.696Z,93.83
2018-12-05T18:17:30.898Z,79.27
2018-12-05T18:20:03.977Z,106.00
2018-12-05T18:22:33.795Z,111.97
2018-12-05T18:25:03.636Z,97.80
2018-12-05T18:27:33.969Z,107.27
2018-12-05T18:30:04.613Z,110.23
2018-12-05T18:32:35.417Z,136.53
2018-12-05T18:35:05.205Z,116.00
2018-12-05T18:37:35.021Z,100.37
2018-12-05T18:40:05.053Z,96.57
2018-12-05T18:42:34.954Z,101.60
2018-12-05T18:45:05.592Z,94.53
2018-12-05T18:47:36.041Z,94.33
2018-12-05T18:50:06.938Z,104.37
2018-12-05T18:52:36.967Z,110.93
2018-12-05T18:55:07.044Z,113.03
2018-12-05T18:57:38.016Z,103.93
2018-12-05T19:00:09.055Z,106.27
2018-12-05T19:02:39.167Z,188.70
2018-12-05T19:05:09.181Z,175.40
2018-12-05T19:07:39.422Z,213.10
2018-12-05T19:10:10.851Z,247.13
2018-12-05T19:12:40.986Z,250.93
2018-12-05T19:15:14.278Z,397.43
2018-12-05T19:17:44.373Z,464.97
2018-12-05T19:20:19.041Z,515.53
2018-12-05T19:22:49.438Z,480.57
2018-12-05T19:25:19.670Z,506.37
2018-12-05T19:27:51.011Z,496.17
2018-12-05T19:30:21.340Z,424.27
2018-12-05T19:32:51.353Z,349.67
2018-12-05T19:35:24.836Z,327.87
2018-12-05T19:37:56.391Z,341.30
2018-12-05T19:40:27.243Z,333.07
2018-12-05T19:42:58.297Z,307.13
2018-12-05T19:45:31.887Z,294.73
2018-12-05T19:48:01.782Z,270.90
2018-12-05T19:50:31.907Z,205.20
2018-12-05T20:11:49.678Z,96.10
2018-12-05T20:14:24.470Z,104.27
2018-12-05T20:16:55.029Z,100.80
2018-12-05T20:19:28.216Z,119.50
2018-12-05T20:21:59.044Z,105.30
2018-12-05T20:24:30.263Z,105.57
2018-12-05T20:27:00.506Z,96.70
2018-12-05T20:29:31.034Z,126.23
2018-12-05T20:32:07.924Z,119.27
2018-12-05T20:34:39.057Z,107.03
2018-12-05T20:37:10.423Z,109.80
2018-12-05T20:39:42.156Z,135.50
2018-12-05T20:42:12.988Z,162.43
2018-12-05T20:44:43.616Z,128.70
2018-12-05T20:47:18.978Z,154.83
2018-12-05T20:49:54.408Z,136.73
2018-12-05T20:52:27.610Z,131.97
2018-12-05T20:55:05.398Z,113.70
2018-12-05T20:57:45.148Z,119.43
2018-12-05T21:00:19.155Z,127.70
2018-12-05T21:02:54.703Z,131.00
2018-12-05T21:05:26.565Z,121.20
2018-12-05T21:07:57.392Z,123.07
2018-12-05T21:13:03.694Z,122.03
2018-12-05T21:15:34.920Z,143.30
2018-12-05T21:18:05.042Z,138.20
2018-12-05T21:20:35.589Z,152.90
2018-12-05T21:23:05.793Z,130.30
2018-12-05T21:25:35.792Z,132.53
2018-12-05T21:28:06.033Z,145.37
2018-12-05T21:30:36.540Z,145.40
2018-12-05T21:33:06.578Z,141.77
2018-12-05T21:35:36.397Z,146.37
2018-12-05T21:38:06.494Z,140.90
2018-12-05T21:40:36.504Z,196.77
2018-12-05T21:43:06.222Z,214.10
2018-12-05T21:45:37.068Z,220.23
2018-12-05T21:48:07.191Z,211.90
2018-12-05T21:50:37.407Z,216.90
2018-12-05T21:53:07.637Z,176.47
2018-12-05T22:14:22.305Z,153.13
2018-12-05T22:16:54.351Z,193.43
2018-12-05T22:19:25.083Z,165.30
2018-12-05T22:21:55.326Z,171.37
2018-12-05T22:24:26.048Z,159.30
2018-12-05T22:26:55.759Z,147.30
2018-12-05T22:29:25.984Z,166.70
2018-12-05T22:50:39.963Z,95.10
2018-12-05T22:53:10.364Z,93.53
2018-12-05T22:55:40.043Z,87.67
2018-12-05T22:58:09.890Z,94.83
2018-12-05T23:00:43.070Z,89.53
2018-12-05T23:03:12.897Z,90.50
2018-12-05T23:05:42.614Z,100.97
2018-12-05T23:08:12.033Z,114.67
2018-12-05T23:10:41.925Z,115.33
2018-12-05T23:13:11.410Z,161.70
2018-12-05T23:15:41.742Z,146.80
2018-12-05T23:18:12.389Z,158.40
2018-12-05T23:20:41.993Z,138.33
2018-12-05T23:23:11.588Z,118.80
2018-12-05T23:25:41.064Z,122.90
2018-12-05T23:28:11.017Z,116.40
2018-12-05T23:30:41.032Z,115.30
2018-12-05T23:33:11.967Z,115.80
2018-12-05T23:35:41.988Z,119.23
2018-12-05T23:38:12.827Z,117.97
2018-12-05T23:40:42.846Z,123.23
2018-12-05T23:43:13.265Z,122.53
2018-12-05T23:45:43.177Z,126.50
2018-12-05T23:48:12.993Z,116.97
2018-12-05T23:50:42.915Z,111.73
2018-12-05T23:53:13.034Z,94.97
2018-12-05T23:55:46.916Z,95.23
2018-12-05T23:58:17.157Z,104.03
